Heyworth, Illinois
Current Conditions -  °F | °C
As of 11:56 PM on Saturday 22 Nov 2014 (Local Time) from KBMI Reporting Station
Broken Clouds Broken Clouds  
Wind Chill: 51°   Ceiling: 4200
Heat Index: 51°   Visibility: 10mi
Dew Point: 48°   Wind: 20mph
Humidity: 89%   Direction: 190°S
Pressure: 29.86"   Gusts: NA
Location:  40.31°N, 88.97°W
Report Text: KBMI 230556Z AUTO 19017KT 10SM BKN042 BKN055 11/09 A2986 RMK AO2 56014 60004 T01050088 10116 20100 401270005 RAB17E42 P0000 SLP115
Loading
Personal Weather Stations






























Interactive Weather Map New forecast layout! Learn more

10-Day Weather Forecast

Advertisements
Track Severe Weather on mobile